Terminal Aerodrome Forecast
Issued by NWS Des Moines, IA

Home | Current Version | Previous Version | Text Only | Print | Product List | Glossary On
Versions: 1 2 3 4 5 6 7 8 9 10 11 12 13 14 15 16 17 18 19 20 21 22 23 24 25 26 27 28 29 30 31 32 33 34
453
FTUS43 KDMX 242339
TAFDSM
TAF
KDSM 242339Z 2500/2524 04007KT P6SM SCT035 BKN070
     FM250300 06004KT P6SM FEW035
     FM251300 16006KT P6SM FEW150
     FM252100 15009KT P6SM FEW035 BKN120=

USA.gov is the U.S. government's official web portal to all federal, state and local government web resources and services.